KPSP

Palm Springs International Airport

Palm Springs, California, USA
METAR KPSP 201753Z 00000KT 10SM FEW100 31/01 A2999 RMK AO2 SLP152 T03060006 10306 20189 58002
Observed Flight Rules
Oct-20 @ 17:53 UTC (16 minutes ago) Visual Flight Rules
Visibility Clouds
10 miles
  • Few at 10,000' AGL
Temperatures Readings
Current 31°C / 88°F
Dewpoint 1°C / 34°F
Humidity 15%
Altimeter 29.99" Hg
Pressure 1015.2 hPa
Elevation 135
METAR KPSP 201753Z 00000KT 10SM FEW100 31/01 A2999 RMK AO2 SLP152 T03060006 10306 20189 58002
Observed Flight Rules
Oct-20 @ 17:53 UTC
(16 minutes ago)
VFR
Clouds
  • Few at 10,000' AGL
Temperature Dewpoint
31°C / 88°F 1°C / 34°F
Humidity Altimeter Pressure
15% 29.99" Hg 1015.2 hPa